createdAt,value
2023-03-16T00:02:07.716Z,97437.91
2023-03-16T00:04:38.165Z,97420.22
2023-03-16T00:07:10.265Z,97417.81
2023-03-16T00:09:41.469Z,97426.06
2023-03-16T00:12:18.058Z,97451.97
2023-03-16T00:14:47.338Z,97438.19
2023-03-16T00:17:19.435Z,97448.75
2023-03-16T00:19:55.444Z,97450.00
2023-03-16T00:22:29.751Z,97440.94
2023-03-16T00:24:57.539Z,97451.75
2023-03-16T00:27:26.592Z,97463.56
2023-03-16T00:29:57.316Z,97433.31
2023-03-16T00:32:28.561Z,97458.50
2023-03-16T00:34:56.097Z,97462.41
2023-03-16T00:37:24.833Z,97452.56
2023-03-16T00:39:53.005Z,97466.19
2023-03-16T00:42:20.651Z,97470.53
2023-03-16T00:44:47.879Z,97463.91
2023-03-16T00:47:15.136Z,97473.16
2023-03-16T00:49:44.532Z,97489.69
2023-03-16T00:52:15.960Z,97473.59
2023-03-16T00:54:45.234Z,97497.84
2023-03-16T00:57:14.674Z,97474.81
2023-03-16T00:59:42.438Z,97466.31
2023-03-16T01:02:11.576Z,97482.03
2023-03-16T01:04:40.310Z,97482.16
2023-03-16T01:07:09.201Z,97487.78
2023-03-16T01:09:37.265Z,97470.69
2023-03-16T01:12:09.668Z,97471.31
2023-03-16T01:14:37.128Z,97463.91
2023-03-16T01:17:08.637Z,97474.28
2023-03-16T01:19:37.281Z,97486.69
2023-03-16T01:22:09.977Z,97483.69
2023-03-16T01:24:38.964Z,97483.94
2023-03-16T01:27:09.009Z,97477.53
2023-03-16T01:29:36.493Z,97489.78
2023-03-16T01:32:04.702Z,97496.97
2023-03-16T01:34:32.654Z,97503.66
2023-03-16T01:37:01.087Z,97478.38
2023-03-16T01:39:40.210Z,97499.63
2023-03-16T01:42:08.369Z,97496.47
2023-03-16T01:44:57.226Z,97521.06
2023-03-16T01:47:29.328Z,97505.88
2023-03-16T01:49:57.755Z,97498.53
2023-03-16T01:52:34.156Z,97503.13
2023-03-16T01:55:06.318Z,97514.81
2023-03-16T01:57:37.770Z,97515.41
2023-03-16T02:00:20.042Z,97509.59
2023-03-16T02:03:09.497Z,97522.63
2023-03-16T02:05:49.163Z,97516.44
2023-03-16T02:08:18.101Z,97518.72
2023-03-16T02:10:46.625Z,97521.06
2023-03-16T02:13:14.323Z,97533.31
2023-03-16T02:15:41.490Z,97526.03
2023-03-16T02:18:09.418Z,97533.53
2023-03-16T02:21:01.438Z,97534.25
2023-03-16T02:23:29.146Z,97539.94
2023-03-16T02:25:59.327Z,97544.75
2023-03-16T02:29:06.661Z,97554.06
2023-03-16T02:31:34.447Z,97544.38
2023-03-16T02:34:02.568Z,97556.75
2023-03-16T02:36:31.187Z,97556.94
2023-03-16T02:38:58.231Z,97566.44
2023-03-16T02:41:26.163Z,97566.38
2023-03-16T02:44:29.417Z,97575.16
2023-03-16T02:47:00.242Z,97573.81
2023-03-16T02:49:44.005Z,97571.06
2023-03-16T02:52:12.118Z,97580.91
2023-03-16T02:54:39.344Z,97582.59
2023-03-16T02:57:06.409Z,97580.19
2023-03-16T02:59:34.651Z,97587.28
2023-03-16T03:02:01.805Z,97573.00
2023-03-16T03:04:28.882Z,97587.22
2023-03-16T03:06:55.995Z,97591.13
2023-03-16T03:09:23.206Z,97589.44
2023-03-16T03:11:53.720Z,97586.56
2023-03-16T03:14:21.734Z,97589.72
2023-03-16T03:16:50.400Z,97598.59
2023-03-16T03:19:17.460Z,97608.53
2023-03-16T03:21:45.318Z,97604.44
2023-03-16T03:24:13.180Z,97629.75
2023-03-16T03:26:40.420Z,97624.91
2023-03-16T03:29:12.870Z,97631.41
2023-03-16T03:31:40.955Z,97623.66
2023-03-16T03:34:08.303Z,97653.00
2023-03-16T03:36:35.949Z,97636.53
2023-03-16T03:39:07.290Z,97634.88
2023-03-16T03:41:35.465Z,97637.00
2023-03-16T03:44:05.180Z,97647.53
2023-03-16T03:46:34.272Z,97646.75
2023-03-16T03:49:04.097Z,97683.00
2023-03-16T03:51:34.093Z,97663.47
2023-03-16T03:54:14.014Z,97662.06
2023-03-16T03:57:04.814Z,97675.94
2023-03-16T03:59:32.206Z,97671.69
2023-03-16T04:02:09.800Z,97682.53
2023-03-16T04:04:43.011Z,97679.84
2023-03-16T04:07:12.116Z,97677.59
2023-03-16T04:09:40.170Z,97686.75
2023-03-16T04:12:09.148Z,97670.59
2023-03-16T04:14:36.350Z,97695.63
2023-03-16T04:17:07.675Z,97684.16
2023-03-16T04:19:37.266Z,97706.81
2023-03-16T04:22:09.005Z,97698.88
2023-03-16T04:24:36.579Z,97692.28
2023-03-16T04:27:03.828Z,97705.25
2023-03-16T04:29:32.208Z,97706.06
2023-03-16T04:31:59.706Z,97704.44
2023-03-16T04:34:28.759Z,97723.44
2023-03-16T04:36:59.564Z,97724.25
2023-03-16T04:39:26.994Z,97730.81
2023-03-16T04:41:54.710Z,97728.38
2023-03-16T04:44:26.267Z,97730.34
2023-03-16T04:46:53.828Z,97719.88
2023-03-16T04:49:22.656Z,97717.06
2023-03-16T04:51:49.712Z,97729.78
2023-03-16T04:54:19.443Z,97729.44
2023-03-16T04:56:48.514Z,97739.91
2023-03-16T04:59:38.728Z,97737.28
2023-03-16T05:02:20.837Z,97725.84
2023-03-16T05:04:49.608Z,97745.41
2023-03-16T05:07:17.446Z,97735.31
2023-03-16T05:09:49.550Z,97739.88
2023-03-16T05:12:17.663Z,97763.41
2023-03-16T05:14:46.220Z,97742.97
2023-03-16T05:17:34.314Z,97736.78
2023-03-16T05:20:01.982Z,97752.38
2023-03-16T05:22:29.164Z,97768.13
2023-03-16T05:25:21.553Z,97760.56
2023-03-16T05:27:57.204Z,97766.16
2023-03-16T05:30:31.619Z,97769.69
2023-03-16T05:33:03.242Z,97760.06
2023-03-16T05:35:31.278Z,97760.13
2023-03-16T05:38:03.263Z,97779.03
2023-03-16T05:40:33.349Z,97781.75
2023-03-16T05:43:16.984Z,97784.88
2023-03-16T05:45:50.576Z,97797.59
2023-03-16T05:48:21.961Z,97785.75
2023-03-16T05:50:54.220Z,97817.34
2023-03-16T05:53:29.177Z,97800.88
2023-03-16T05:56:03.498Z,97809.75
2023-03-16T05:58:34.374Z,97811.47
2023-03-16T06:01:07.380Z,97805.25
2023-03-16T06:03:34.852Z,97825.88
2023-03-16T06:06:02.329Z,97820.53
2023-03-16T06:08:34.871Z,97829.97
2023-03-16T06:11:10.224Z,97816.34
2023-03-16T06:13:39.230Z,97845.63
2023-03-16T06:16:07.065Z,97830.41
2023-03-16T06:18:36.021Z,97836.03
2023-03-16T06:21:04.169Z,97862.38
2023-03-16T06:23:34.371Z,97851.13
2023-03-16T06:26:04.227Z,97859.16
2023-03-16T06:28:34.043Z,97857.63
2023-03-16T06:31:01.240Z,97868.78
2023-03-16T06:33:32.668Z,97882.50
2023-03-16T06:36:00.143Z,97860.84
2023-03-16T06:38:32.605Z,97858.75
2023-03-16T06:41:06.985Z,97868.94
2023-03-16T06:43:35.513Z,97881.75
2023-03-16T06:46:03.526Z,97883.88
2023-03-16T06:48:31.647Z,97882.13
2023-03-16T06:50:58.669Z,97916.59
2023-03-16T06:53:28.356Z,97892.66
2023-03-16T06:55:56.976Z,97900.97
2023-03-16T06:58:26.693Z,97917.88
2023-03-16T07:00:54.203Z,97909.44
2023-03-16T07:03:22.113Z,97914.25
2023-03-16T07:05:55.683Z,97896.88
2023-03-16T07:08:23.794Z,97914.56
2023-03-16T07:10:52.271Z,97909.63
2023-03-16T07:13:19.541Z,97931.59
2023-03-16T07:15:46.891Z,97921.19
2023-03-16T07:18:15.268Z,97907.78
2023-03-16T07:20:42.817Z,97921.13
2023-03-16T07:23:11.586Z,97915.25
2023-03-16T07:25:40.259Z,97915.53
2023-03-16T07:28:07.498Z,97926.69
2023-03-16T07:30:41.330Z,97958.47
2023-03-16T07:33:10.059Z,97952.09
2023-03-16T07:35:37.102Z,97951.00
2023-03-16T07:38:04.978Z,97940.66
2023-03-16T07:40:34.720Z,97960.59
2023-03-16T07:43:10.195Z,97937.75
2023-03-16T07:45:50.462Z,97957.56
2023-03-16T07:48:20.378Z,97965.53
2023-03-16T07:50:54.726Z,97961.50
2023-03-16T07:53:23.207Z,97961.38
2023-03-16T07:55:54.941Z,97954.81
2023-03-16T07:58:22.369Z,97955.22
2023-03-16T08:00:50.569Z,97955.41
2023-03-16T08:03:19.775Z,97968.00
2023-03-16T08:05:47.661Z,97953.28
2023-03-16T08:08:17.064Z,97956.09
2023-03-16T08:10:44.388Z,97919.03
2023-03-16T08:13:15.953Z,97946.41
2023-03-16T08:15:49.810Z,97954.75
2023-03-16T08:18:27.050Z,97944.13
2023-03-16T08:20:55.844Z,97968.03
2023-03-16T08:23:24.470Z,97971.66
2023-03-16T08:25:54.060Z,97956.09
2023-03-16T08:28:22.568Z,97944.84
2023-03-16T08:30:53.231Z,97937.94
2023-03-16T08:33:36.568Z,97994.19
2023-03-16T08:36:09.306Z,97979.72
2023-03-16T08:38:36.784Z,97949.56
2023-03-16T08:41:08.518Z,97971.56
2023-03-16T08:43:37.687Z,97955.00
2023-03-16T08:46:05.768Z,97927.63
2023-03-16T08:48:44.302Z,97960.84
2023-03-16T08:51:11.910Z,97953.13
2023-03-16T08:53:39.492Z,97916.22
2023-03-16T08:56:09.090Z,97980.50
2023-03-16T08:58:36.457Z,97955.31
2023-03-16T09:01:05.998Z,97977.94
2023-03-16T09:03:35.113Z,97957.91
2023-03-16T09:06:07.705Z,97994.00
2023-03-16T09:08:34.702Z,97974.91
2023-03-16T09:11:13.016Z,97962.81
2023-03-16T09:13:40.951Z,97973.38
2023-03-16T09:16:12.500Z,97972.34
2023-03-16T09:18:40.328Z,97982.22
2023-03-16T09:21:10.615Z,97990.41
2023-03-16T09:23:42.112Z,97992.09
2023-03-16T09:26:09.913Z,97965.13
2023-03-16T09:28:39.320Z,97999.97
2023-03-16T09:31:07.444Z,97982.94
2023-03-16T09:33:35.615Z,97973.19
2023-03-16T09:36:03.876Z,97971.28
2023-03-16T09:38:32.372Z,97970.50
2023-03-16T09:41:08.756Z,97969.63
2023-03-16T09:43:52.087Z,97973.91
2023-03-16T09:46:32.070Z,98019.09
2023-03-16T09:48:59.802Z,97990.50
2023-03-16T09:51:52.459Z,97987.03
2023-03-16T09:54:45.987Z,97981.88
2023-03-16T09:57:38.666Z,97979.41
2023-03-16T10:00:18.941Z,97983.81
2023-03-16T10:02:59.167Z,97979.63
2023-03-16T10:05:27.500Z,97993.53
2023-03-16T10:07:54.460Z,97961.84
2023-03-16T10:10:31.325Z,97976.84
2023-03-16T10:13:01.079Z,97993.28
2023-03-16T10:15:33.725Z,97980.78
2023-03-16T10:18:12.366Z,97986.28
2023-03-16T10:20:42.177Z,98002.72
2023-03-16T10:23:20.938Z,98006.59
2023-03-16T10:25:49.848Z,98004.53
2023-03-16T10:28:28.807Z,98004.56
2023-03-16T10:30:58.333Z,98010.75
2023-03-16T10:33:33.748Z,97989.66
2023-03-16T10:36:42.583Z,98002.59
2023-03-16T10:39:13.556Z,98005.34
2023-03-16T10:41:44.149Z,98005.56
2023-03-16T10:44:23.768Z,97993.84
2023-03-16T10:47:05.046Z,98022.28
2023-03-16T10:49:47.835Z,98002.38
2023-03-16T10:52:30.345Z,98009.72
2023-03-16T10:55:00.723Z,98012.00
2023-03-16T10:57:33.905Z,98017.97
2023-03-16T11:00:13.674Z,98009.13
2023-03-16T11:02:40.988Z,97996.91
2023-03-16T11:05:40.569Z,97997.19
2023-03-16T11:08:24.108Z,98021.06
2023-03-16T11:11:00.069Z,98030.75
2023-03-16T11:13:35.825Z,98017.75
2023-03-16T11:16:30.889Z,98025.47
2023-03-16T11:19:04.901Z,97992.84
2023-03-16T11:21:55.288Z,98016.16
2023-03-16T11:24:33.418Z,98007.25
2023-03-16T11:27:04.944Z,98014.72
2023-03-16T11:29:45.465Z,98001.50
2023-03-16T11:32:16.510Z,98015.78
2023-03-16T11:34:44.875Z,97995.88
2023-03-16T11:37:48.518Z,98009.31
2023-03-16T11:41:00.499Z,98016.41
2023-03-16T11:43:39.387Z,98018.84
2023-03-16T11:46:22.903Z,98006.50
2023-03-16T11:49:00.208Z,97991.50
2023-03-16T11:51:41.097Z,98008.41
2023-03-16T11:54:29.515Z,98026.56
2023-03-16T11:57:27.469Z,98041.63
2023-03-16T12:00:03.496Z,98016.88
2023-03-16T12:03:02.949Z,98022.25
2023-03-16T12:06:05.663Z,98017.16
2023-03-16T12:08:57.759Z,98008.38
2023-03-16T12:11:32.345Z,98023.59
2023-03-16T12:14:15.952Z,98023.50
2023-03-16T12:17:02.894Z,98039.31
2023-03-16T12:19:55.273Z,98027.97
2023-03-16T12:23:08.153Z,98019.75
2023-03-16T12:25:39.746Z,98018.06
2023-03-16T12:28:14.578Z,98022.91
2023-03-16T12:31:03.592Z,98014.69
2023-03-16T12:33:48.778Z,98031.84
2023-03-16T12:36:40.334Z,98040.13
2023-03-16T12:39:22.181Z,98044.03
2023-03-16T12:41:54.802Z,98059.41
2023-03-16T12:44:57.481Z,98029.88
2023-03-16T12:47:50.783Z,98035.28
2023-03-16T12:50:20.048Z,98038.69
2023-03-16T12:52:49.952Z,98044.22
2023-03-16T12:55:25.185Z,98049.84
2023-03-16T12:58:00.600Z,98031.94
2023-03-16T13:00:58.457Z,98036.63
2023-03-16T13:03:26.883Z,98040.38
2023-03-16T13:05:59.047Z,98044.19
2023-03-16T13:08:27.991Z,98045.69
2023-03-16T13:11:07.578Z,98063.97
2023-03-16T13:13:34.710Z,98049.94
2023-03-16T13:16:27.526Z,98052.13
2023-03-16T13:18:55.286Z,98050.41
2023-03-16T13:21:36.583Z,98055.09
2023-03-16T13:24:26.242Z,98043.25
2023-03-16T13:27:01.423Z,98054.72
2023-03-16T13:29:31.302Z,98073.16
2023-03-16T13:32:03.131Z,98067.66
2023-03-16T13:34:33.561Z,98067.78
2023-03-16T13:37:01.941Z,98067.88
2023-03-16T13:39:31.230Z,98071.00
2023-03-16T13:42:02.403Z,98084.03
2023-03-16T13:44:30.421Z,98091.44
2023-03-16T13:46:58.265Z,98065.50
2023-03-16T13:49:25.308Z,98093.28
2023-03-16T13:51:52.839Z,98073.13
2023-03-16T13:54:24.338Z,98111.63
2023-03-16T13:56:53.270Z,98088.78
2023-03-16T13:59:22.299Z,98103.72
2023-03-16T14:01:58.150Z,98101.31
2023-03-16T14:04:31.963Z,98089.03
2023-03-16T14:07:02.093Z,98096.91
2023-03-16T14:09:33.462Z,98088.41
2023-03-16T14:12:00.904Z,98098.91
2023-03-16T14:14:37.511Z,98096.75
2023-03-16T14:17:14.383Z,98112.16
2023-03-16T14:19:45.907Z,98099.91
2023-03-16T14:22:23.713Z,98114.19
2023-03-16T14:24:59.386Z,98116.53
2023-03-16T14:27:35.601Z,98115.09
2023-03-16T14:30:30.488Z,98113.00
2023-03-16T14:33:00.671Z,98119.44
2023-03-16T14:35:33.236Z,98133.53
2023-03-16T14:38:25.063Z,98118.00
2023-03-16T14:40:57.911Z,98141.59
2023-03-16T14:43:31.270Z,98140.59
2023-03-16T14:45:59.887Z,98142.44
2023-03-16T14:48:28.554Z,98128.03
2023-03-16T14:50:58.961Z,98133.41
2023-03-16T14:53:28.669Z,98134.19
2023-03-16T14:55:59.764Z,98134.59
2023-03-16T14:58:27.089Z,98134.38
2023-03-16T15:00:54.933Z,98140.69
2023-03-16T15:03:30.752Z,98140.81
2023-03-16T15:05:57.806Z,98146.19
2023-03-16T15:08:28.776Z,98138.28
2023-03-16T15:11:01.017Z,98148.44
2023-03-16T15:13:40.028Z,98140.97
2023-03-16T15:16:11.699Z,98147.59
2023-03-16T15:18:42.109Z,98155.53
2023-03-16T15:21:20.746Z,98146.13
2023-03-16T15:23:48.430Z,98150.00
2023-03-16T15:26:24.839Z,98139.94
2023-03-16T15:28:52.285Z,98159.13
2023-03-16T15:31:19.354Z,98148.28
2023-03-16T15:33:46.628Z,98152.78
2023-03-16T15:36:19.253Z,98158.88
2023-03-16T15:38:48.640Z,98153.00
2023-03-16T15:41:16.427Z,98156.16
2023-03-16T15:43:45.821Z,98154.47
2023-03-16T15:46:14.018Z,98146.44
2023-03-16T15:48:41.546Z,98159.16
2023-03-16T15:51:17.216Z,98151.72
2023-03-16T15:53:50.030Z,98151.53
2023-03-16T15:56:22.279Z,98156.97
2023-03-16T15:58:50.892Z,98160.56
2023-03-16T16:01:23.245Z,98170.03
2023-03-16T16:03:51.798Z,98168.72
2023-03-16T16:06:19.170Z,98169.25
2023-03-16T16:08:46.581Z,98175.56
2023-03-16T16:11:26.581Z,98185.66
2023-03-16T16:13:56.802Z,98182.44
2023-03-16T16:16:27.630Z,98176.22
2023-03-16T16:18:55.378Z,98177.44
2023-03-16T16:21:33.195Z,98191.09
2023-03-16T16:24:03.686Z,98182.75
2023-03-16T16:26:50.092Z,98194.53
2023-03-16T16:29:27.602Z,98194.84
2023-03-16T16:31:56.560Z,98207.63
2023-03-16T16:34:26.024Z,98194.97
2023-03-16T16:36:55.936Z,98185.13
2023-03-16T16:39:24.478Z,98215.41
2023-03-16T16:41:55.080Z,98234.72
2023-03-16T16:44:28.186Z,98213.16
2023-03-16T16:46:55.864Z,98214.81
2023-03-16T16:49:24.808Z,98234.34
2023-03-16T16:51:53.008Z,98216.44
2023-03-16T16:54:22.223Z,98213.75
2023-03-16T16:56:54.206Z,98214.41
2023-03-16T16:59:34.464Z,98206.47
2023-03-16T17:02:04.043Z,98215.28
2023-03-16T17:04:31.072Z,98219.69
2023-03-16T17:07:02.292Z,98226.25
2023-03-16T17:09:30.520Z,98232.03
2023-03-16T17:12:02.230Z,98230.97
2023-03-16T17:14:31.529Z,98236.19
2023-03-16T17:17:02.999Z,98232.56
2023-03-16T17:19:30.236Z,98227.84
2023-03-16T17:21:58.555Z,98219.59
2023-03-16T17:24:25.811Z,98245.22
2023-03-16T17:26:56.203Z,98237.81
2023-03-16T17:29:27.711Z,98252.16
2023-03-16T17:31:54.954Z,98248.94
2023-03-16T17:34:24.669Z,98254.84
2023-03-16T17:36:52.556Z,98244.78
2023-03-16T17:39:27.661Z,98260.53
2023-03-16T17:41:57.733Z,98254.41
2023-03-16T17:44:27.368Z,98276.56
2023-03-16T17:46:54.666Z,98268.25
2023-03-16T17:49:23.472Z,98265.66
2023-03-16T17:51:50.457Z,98277.97
2023-03-16T17:54:17.577Z,98272.97
2023-03-16T17:56:46.231Z,98270.91
2023-03-16T17:59:18.268Z,98262.56
2023-03-16T18:01:47.322Z,98275.94
2023-03-16T18:04:23.473Z,98280.19
2023-03-16T18:06:51.593Z,98256.09
2023-03-16T18:09:20.317Z,98275.47
2023-03-16T18:11:51.844Z,98280.84
2023-03-16T18:14:21.518Z,98293.47
2023-03-16T18:16:48.667Z,98290.47
2023-03-16T18:19:24.787Z,98285.75
2023-03-16T18:21:53.820Z,98293.09
2023-03-16T18:24:22.480Z,98293.78
2023-03-16T18:26:49.809Z,98295.19
2023-03-16T18:29:16.918Z,98301.81
2023-03-16T18:31:46.122Z,98308.19
2023-03-16T18:34:24.023Z,98303.28
2023-03-16T18:36:55.099Z,98314.88
2023-03-16T18:39:22.879Z,98304.59
2023-03-16T18:41:50.102Z,98311.63
2023-03-16T18:44:21.818Z,98312.81
2023-03-16T18:46:50.350Z,98310.22
2023-03-16T18:49:37.715Z,98314.94
2023-03-16T18:52:17.582Z,98310.44
2023-03-16T18:54:45.898Z,98314.94
2023-03-16T18:57:22.447Z,98312.25
2023-03-16T18:59:50.755Z,98314.53
2023-03-16T19:02:39.847Z,98337.28
2023-03-16T19:05:19.813Z,98320.00
2023-03-16T19:07:50.490Z,98327.38
2023-03-16T19:10:26.726Z,98333.31
2023-03-16T19:12:54.723Z,98326.00
2023-03-16T19:15:34.008Z,98328.91
2023-03-16T19:18:01.146Z,98332.41
2023-03-16T19:20:30.666Z,98339.13
2023-03-16T19:23:06.083Z,98340.84
2023-03-16T19:25:38.424Z,98325.00
2023-03-16T19:28:08.031Z,98334.53
2023-03-16T19:30:36.411Z,98343.19
2023-03-16T19:33:03.585Z,98336.53
2023-03-16T19:35:50.332Z,98342.34
2023-03-16T19:38:18.440Z,98355.56
2023-03-16T19:40:47.589Z,98358.78
2023-03-16T19:43:19.622Z,98363.69
2023-03-16T19:45:48.378Z,98352.31
2023-03-16T19:48:31.831Z,98362.91
2023-03-16T19:50:59.625Z,98355.94
2023-03-16T19:53:27.645Z,98355.31
2023-03-16T19:55:55.105Z,98361.63
2023-03-16T19:58:30.818Z,98374.56
2023-03-16T20:00:59.429Z,98366.09
2023-03-16T20:03:26.612Z,98359.44
2023-03-16T20:05:53.880Z,98348.53
2023-03-16T20:08:26.758Z,98367.53
2023-03-16T20:10:59.811Z,98389.09
2023-03-16T20:13:26.964Z,98371.75
2023-03-16T20:15:54.138Z,98373.16
2023-03-16T20:18:21.776Z,98364.75
2023-03-16T20:20:48.805Z,98369.31
2023-03-16T20:23:25.907Z,98371.16
2023-03-16T20:26:02.089Z,98375.91
2023-03-16T20:28:37.146Z,98374.56
2023-03-16T20:31:08.499Z,98381.66
2023-03-16T20:33:35.744Z,98368.28
2023-03-16T20:36:02.837Z,98385.78
2023-03-16T20:38:29.929Z,98384.16
2023-03-16T20:40:57.916Z,98382.03
2023-03-16T20:43:28.199Z,98373.56
2023-03-16T20:45:58.118Z,98374.91
2023-03-16T20:48:25.713Z,98377.84
2023-03-16T20:50:54.067Z,98376.41
2023-03-16T20:53:21.836Z,98388.81
2023-03-16T20:55:50.591Z,98383.69
2023-03-16T20:58:24.640Z,98380.13
2023-03-16T21:00:56.036Z,98384.94
2023-03-16T21:03:27.039Z,98393.78
2023-03-16T21:05:59.357Z,98388.81
2023-03-16T21:08:27.746Z,98391.97
2023-03-16T21:10:56.961Z,98381.09
2023-03-16T21:13:32.273Z,98391.09
2023-03-16T21:16:02.546Z,98384.81
2023-03-16T21:18:30.797Z,98415.00
2023-03-16T21:20:59.289Z,98410.31
2023-03-16T21:23:26.715Z,98385.00
2023-03-16T21:25:56.929Z,98387.00
2023-03-16T21:28:26.284Z,98397.88
2023-03-16T21:30:56.281Z,98407.50
2023-03-16T21:33:28.090Z,98386.34
2023-03-16T21:35:55.164Z,98398.53
2023-03-16T21:38:24.589Z,98406.09
2023-03-16T21:40:51.917Z,98394.13
2023-03-16T21:43:23.681Z,98391.84
2023-03-16T21:45:54.245Z,98375.09
2023-03-16T21:48:25.085Z,98409.56
2023-03-16T21:50:53.953Z,98379.53
2023-03-16T21:53:25.305Z,98398.69
2023-03-16T21:55:53.557Z,98380.50
2023-03-16T21:58:22.409Z,98395.09
2023-03-16T22:00:51.953Z,98387.94
2023-03-16T22:03:49.705Z,98390.72
2023-03-16T22:06:17.356Z,98388.63
2023-03-16T22:08:44.450Z,98411.09
2023-03-16T22:11:23.295Z,98384.84
2023-03-16T22:13:55.483Z,98381.38
2023-03-16T22:16:25.023Z,98384.44
2023-03-16T22:18:56.548Z,98389.19
2023-03-16T22:21:38.286Z,98388.19
2023-03-16T22:24:14.126Z,98384.44
2023-03-16T22:26:41.617Z,98378.84
2023-03-16T22:29:35.056Z,98390.66
2023-03-16T22:32:12.582Z,98375.97
2023-03-16T22:34:50.660Z,98398.69
2023-03-16T22:37:21.586Z,98392.59
2023-03-16T22:39:49.893Z,98382.53
2023-03-16T22:42:19.520Z,98395.38
2023-03-16T22:44:46.525Z,98392.63
2023-03-16T22:47:28.976Z,98393.28
2023-03-16T22:49:56.193Z,98394.22
2023-03-16T22:52:28.623Z,98395.69
2023-03-16T22:54:56.995Z,98397.97
2023-03-16T22:57:24.055Z,98402.56
2023-03-16T22:59:52.465Z,98404.31
2023-03-16T23:02:24.439Z,98395.31
2023-03-16T23:04:51.568Z,98409.66
2023-03-16T23:07:18.678Z,98400.88
2023-03-16T23:09:46.375Z,98398.19
2023-03-16T23:12:19.557Z,98411.63
2023-03-16T23:14:46.717Z,98413.56
2023-03-16T23:17:22.474Z,98397.38
2023-03-16T23:19:49.697Z,98413.88
2023-03-16T23:22:17.168Z,98420.84
2023-03-16T23:24:44.252Z,98414.78
2023-03-16T23:27:20.387Z,98417.41
2023-03-16T23:29:48.240Z,98411.78
2023-03-16T23:32:17.277Z,98421.88
2023-03-16T23:34:44.436Z,98404.84
2023-03-16T23:37:11.979Z,98410.16
2023-03-16T23:39:40.042Z,98397.09
2023-03-16T23:42:07.458Z,98414.91
2023-03-16T23:44:34.740Z,98416.31
2023-03-16T23:47:02.512Z,98416.44
2023-03-16T23:49:33.102Z,98419.94
2023-03-16T23:52:01.972Z,98434.53
2023-03-16T23:54:31.835Z,98443.28
2023-03-16T23:56:59.497Z,98435.69
2023-03-16T23:59:27.605Z,98438.66
